sensor_id;sensor_type;location;lat;lon;timestamp;pressure;altitude;pressure_sealevel;temperature;humidity
24031;BME280;12240;51.142;22.486;2023-02-13T00:01:24;101150.28;;;0.71;100.00
24031;BME280;12240;51.142;22.486;2023-02-13T00:03:52;101092.56;;;0.45;100.00
24031;BME280;12240;51.142;22.486;2023-02-13T00:06:21;101097.81;;;0.45;100.00
24031;BME280;12240;51.142;22.486;2023-02-13T00:08:50;101110.53;;;0.57;100.00
24031;BME280;12240;51.142;22.486;2023-02-13T00:11:18;101141.31;;;0.78;100.00
24031;BME280;12240;51.142;22.486;2023-02-13T00:13:48;101060.53;;;0.37;100.00
24031;BME280;12240;51.142;22.486;2023-02-13T00:16:16;101138.53;;;0.83;100.00
24031;BME280;12240;51.142;22.486;2023-02-13T00:18:44;101096.50;;;0.60;100.00
24031;BME280;12240;51.142;22.486;2023-02-13T00:21:13;101090.53;;;0.55;100.00
24031;BME280;12240;51.142;22.486;2023-02-13T00:23:42;101133.63;;;0.72;100.00
24031;BME280;12240;51.142;22.486;2023-02-13T00:26:13;101143.91;;;0.80;100.00
24031;BME280;12240;51.142;22.486;2023-02-13T00:28:44;101147.44;;;0.79;100.00
24031;BME280;12240;51.142;22.486;2023-02-13T00:31:17;101112.41;;;0.54;100.00
24031;BME280;12240;51.142;22.486;2023-02-13T00:33:47;101150.13;;;0.77;100.00
24031;BME280;12240;51.142;22.486;2023-02-13T00:36:21;101145.66;;;0.79;100.00
24031;BME280;12240;51.142;22.486;2023-02-13T00:38:53;101094.16;;;0.51;100.00
24031;BME280;12240;51.142;22.486;2023-02-13T00:41:21;101136.84;;;0.82;100.00
24031;BME280;12240;51.142;22.486;2023-02-13T00:43:51;101128.06;;;0.83;100.00
24031;BME280;12240;51.142;22.486;2023-02-13T00:46:19;101133.25;;;0.84;100.00
24031;BME280;12240;51.142;22.486;2023-02-13T00:48:48;101113.41;;;0.77;100.00
24031;BME280;12240;51.142;22.486;2023-02-13T00:51:16;101121.06;;;0.83;100.00
24031;BME280;12240;51.142;22.486;2023-02-13T00:53:45;101111.44;;;0.84;100.00
24031;BME280;12240;51.142;22.486;2023-02-13T00:56:15;101107.94;;;0.83;100.00
24031;BME280;12240;51.142;22.486;2023-02-13T00:58:44;101051.13;;;0.58;100.00
24031;BME280;12240;51.142;22.486;2023-02-13T01:01:13;101098.97;;;0.90;100.00
24031;BME280;12240;51.142;22.486;2023-02-13T01:03:41;101105.09;;;0.91;100.00
24031;BME280;12240;51.142;22.486;2023-02-13T01:06:10;101092.97;;;0.87;100.00
24031;BME280;12240;51.142;22.486;2023-02-13T01:08:39;101082.59;;;0.84;100.00
24031;BME280;12240;51.142;22.486;2023-02-13T01:11:08;101097.91;;;0.96;100.00
24031;BME280;12240;51.142;22.486;2023-02-13T01:13:37;101093.50;;;0.98;100.00
24031;BME280;12240;51.142;22.486;2023-02-13T01:16:05;101090.88;;;0.98;100.00
24031;BME280;12240;51.142;22.486;2023-02-13T01:18:34;101046.28;;;0.72;100.00
24031;BME280;12240;51.142;22.486;2023-02-13T01:21:06;101078.00;;;0.90;100.00
24031;BME280;12240;51.142;22.486;2023-02-13T01:23:37;101030.63;;;0.69;100.00
24031;BME280;12240;51.142;22.486;2023-02-13T01:26:08;101078.75;;;0.94;100.00
24031;BME280;12240;51.142;22.486;2023-02-13T01:28:38;101044.38;;;0.77;100.00
24031;BME280;12240;51.142;22.486;2023-02-13T01:31:06;101039.13;;;0.77;100.00
24031;BME280;12240;51.142;22.486;2023-02-13T01:33:34;101070.66;;;1.00;100.00
24031;BME280;12240;51.142;22.486;2023-02-13T01:36:11;101059.53;;;0.93;100.00
24031;BME280;12240;51.142;22.486;2023-02-13T01:38:41;101009.81;;;0.64;100.00
24031;BME280;12240;51.142;22.486;2023-02-13T01:41:10;101032.13;;;0.77;100.00
24031;BME280;12240;51.142;22.486;2023-02-13T01:47:13;101066.88;;;1.08;100.00
24031;BME280;12240;51.142;22.486;2023-02-13T01:49:44;100993.28;;;0.62;100.00
24031;BME280;12240;51.142;22.486;2023-02-13T01:52:15;101063.47;;;1.06;100.00
24031;BME280;12240;51.142;22.486;2023-02-13T01:54:45;101016.41;;;0.76;100.00
24031;BME280;12240;51.142;22.486;2023-02-13T01:57:20;101059.06;;;1.07;100.00
24031;BME280;12240;51.142;22.486;2023-02-13T02:00:15;101060.88;;;1.05;100.00
24031;BME280;12240;51.142;22.486;2023-02-13T02:03:00;101046.91;;;1.04;100.00
24031;BME280;12240;51.142;22.486;2023-02-13T02:05:33;101061.03;;;1.00;100.00
24031;BME280;12240;51.142;22.486;2023-02-13T02:08:05;101061.75;;;1.05;100.00
24031;BME280;12240;51.142;22.486;2023-02-13T02:10:36;101052.22;;;1.03;100.00
24031;BME280;12240;51.142;22.486;2023-02-13T02:13:18;101052.22;;;1.03;100.00
24031;BME280;12240;51.142;22.486;2023-02-13T02:15:48;101053.16;;;1.00;100.00
24031;BME280;12240;51.142;22.486;2023-02-13T02:18:22;101003.59;;;0.68;100.00
24031;BME280;12240;51.142;22.486;2023-02-13T02:47:39;101047.94;;;1.00;100.00
24031;BME280;12240;51.142;22.486;2023-02-13T02:50:58;101000.81;;;0.73;100.00
24031;BME280;12240;51.142;22.486;2023-02-13T02:57:18;101037.59;;;0.96;100.00
24031;BME280;12240;51.142;22.486;2023-02-13T02:59:56;101008.53;;;0.77;100.00
24031;BME280;12240;51.142;22.486;2023-02-13T03:02:43;101053.97;;;1.02;100.00
24031;BME280;12240;51.142;22.486;2023-02-13T03:05:33;101021.66;;;0.76;100.00
24031;BME280;12240;51.142;22.486;2023-02-13T03:08:21;101054.78;;;1.04;100.00
24031;BME280;12240;51.142;22.486;2023-02-13T03:11:09;101050.50;;;1.02;100.00
24031;BME280;12240;51.142;22.486;2023-02-13T03:13:57;100997.13;;;0.78;100.00
24031;BME280;12240;51.142;22.486;2023-02-13T03:16:27;101045.25;;;1.02;100.00
24031;BME280;12240;51.142;22.486;2023-02-13T03:19:30;101057.47;;;1.03;100.00
24031;BME280;12240;51.142;22.486;2023-02-13T03:22:42;101047.03;;;1.01;100.00
24031;BME280;12240;51.142;22.486;2023-02-13T03:25:35;101046.00;;;1.05;100.00
24031;BME280;12240;51.142;22.486;2023-02-13T03:28:20;101039.94;;;1.03;100.00
24031;BME280;12240;51.142;22.486;2023-02-13T03:34:12;101029.19;;;1.11;100.00
24031;BME280;12240;51.142;22.486;2023-02-13T03:37:00;101035.31;;;1.11;100.00
24031;BME280;12240;51.142;22.486;2023-02-13T03:40:08;101021.44;;;1.08;100.00
24031;BME280;12240;51.142;22.486;2023-02-13T03:43:07;101034.28;;;1.15;100.00
24031;BME280;12240;51.142;22.486;2023-02-13T03:45:43;100991.34;;;0.93;100.00
24031;BME280;12240;51.142;22.486;2023-02-13T03:48:29;101022.13;;;1.13;100.00
24031;BME280;12240;51.142;22.486;2023-02-13T03:57:18;101038.41;;;1.23;100.00
24031;BME280;12240;51.142;22.486;2023-02-13T04:00:11;101037.56;;;1.22;100.00
24031;BME280;12240;51.142;22.486;2023-02-13T04:03:14;101039.19;;;1.25;100.00
24031;BME280;12240;51.142;22.486;2023-02-13T04:06:09;101043.44;;;1.29;100.00
24031;BME280;12240;51.142;22.486;2023-02-13T04:08:38;101034.97;;;1.20;100.00
24031;BME280;12240;51.142;22.486;2023-02-13T04:11:23;101042.47;;;1.31;100.00
24031;BME280;12240;51.142;22.486;2023-02-13T04:14:03;101042.38;;;1.34;100.00
24031;BME280;12240;51.142;22.486;2023-02-13T04:16:42;101013.03;;;1.23;100.00
24031;BME280;12240;51.142;22.486;2023-02-13T04:19:12;101019.81;;;1.29;100.00
24031;BME280;12240;51.142;22.486;2023-02-13T04:21:41;101018.59;;;1.39;100.00
24031;BME280;12240;51.142;22.486;2023-02-13T04:24:09;101031.66;;;1.40;100.00
24031;BME280;12240;51.142;22.486;2023-02-13T04:26:41;101019.44;;;1.39;100.00
24031;BME280;12240;51.142;22.486;2023-02-13T04:29:10;101005.53;;;1.37;100.00
24031;BME280;12240;51.142;22.486;2023-02-13T04:31:38;100988.53;;;1.23;100.00
24031;BME280;12240;51.142;22.486;2023-02-13T04:34:07;101012.66;;;1.34;100.00
24031;BME280;12240;51.142;22.486;2023-02-13T04:36:38;101013.97;;;1.45;100.00
24031;BME280;12240;51.142;22.486;2023-02-13T04:39:06;100989.91;;;1.34;100.00
24031;BME280;12240;51.142;22.486;2023-02-13T04:41:34;101015.41;;;1.54;100.00
24031;BME280;12240;51.142;22.486;2023-02-13T04:44:03;101031.72;;;1.62;100.00
24031;BME280;12240;51.142;22.486;2023-02-13T04:46:31;101024.69;;;1.62;100.00
24031;BME280;12240;51.142;22.486;2023-02-13T04:49:00;100992.09;;;1.45;100.00
24031;BME280;12240;51.142;22.486;2023-02-13T04:51:28;100991.88;;;1.51;100.00
24031;BME280;12240;51.142;22.486;2023-02-13T04:53:57;101023.44;;;1.72;100.00
24031;BME280;12240;51.142;22.486;2023-02-13T04:56:25;101026.81;;;1.76;100.00
24031;BME280;12240;51.142;22.486;2023-02-13T04:58:54;101029.22;;;1.82;100.00
24031;BME280;12240;51.142;22.486;2023-02-13T05:01:23;101016.16;;;1.80;100.00
24031;BME280;12240;51.142;22.486;2023-02-13T05:03:51;101001.69;;;1.69;100.00
24031;BME280;12240;51.142;22.486;2023-02-13T05:06:19;101034.84;;;1.94;100.00
24031;BME280;12240;51.142;22.486;2023-02-13T05:08:48;101036.31;;;2.01;100.00
24031;BME280;12240;51.142;22.486;2023-02-13T05:11:16;101047.63;;;2.03;100.00
24031;BME280;12240;51.142;22.486;2023-02-13T05:13:44;101046.75;;;2.04;100.00
24031;BME280;12240;51.142;22.486;2023-02-13T05:16:12;101053.69;;;2.05;100.00
24031;BME280;12240;51.142;22.486;2023-02-13T05:18:41;101039.81;;;2.02;100.00
24031;BME280;12240;51.142;22.486;2023-02-13T05:21:10;101039.47;;;2.11;100.00
24031;BME280;12240;51.142;22.486;2023-02-13T05:23:57;101039.59;;;2.08;100.00
24031;BME280;12240;51.142;22.486;2023-02-13T05:26:25;101049.91;;;2.12;100.00
24031;BME280;12240;51.142;22.486;2023-02-13T05:28:53;101053.34;;;2.14;100.00
24031;BME280;12240;51.142;22.486;2023-02-13T05:31:39;101015.50;;;1.97;100.00
24031;BME280;12240;51.142;22.486;2023-02-13T05:34:08;101009.50;;;1.93;100.00
24031;BME280;12240;51.142;22.486;2023-02-13T05:36:36;101046.34;;;2.15;100.00
24031;BME280;12240;51.142;22.486;2023-02-13T05:39:05;101001.91;;;1.86;100.00
24031;BME280;12240;51.142;22.486;2023-02-13T05:41:34;101001.06;;;1.85;100.00
24031;BME280;12240;51.142;22.486;2023-02-13T05:44:02;101052.69;;;2.09;100.00
24031;BME280;12240;51.142;22.486;2023-02-13T05:46:31;101050.88;;;2.10;100.00
24031;BME280;12240;51.142;22.486;2023-02-13T05:49:00;101035.38;;;2.04;100.00
24031;BME280;12240;51.142;22.486;2023-02-13T05:51:31;101060.38;;;2.14;100.00
24031;BME280;12240;51.142;22.486;2023-02-13T05:54:00;101066.66;;;2.10;100.00
24031;BME280;12240;51.142;22.486;2023-02-13T05:56:28;101022.81;;;1.89;100.00
24031;BME280;12240;51.142;22.486;2023-02-13T05:58:56;101065.81;;;2.09;100.00
24031;BME280;12240;51.142;22.486;2023-02-13T06:01:25;101066.72;;;2.08;100.00
24031;BME280;12240;51.142;22.486;2023-02-13T06:03:53;101013.47;;;1.82;100.00
24031;BME280;12240;51.142;22.486;2023-02-13T06:06:24;101055.91;;;2.16;100.00
24031;BME280;12240;51.142;22.486;2023-02-13T06:08:52;101056.72;;;2.18;100.00
24031;BME280;12240;51.142;22.486;2023-02-13T06:11:20;101020.41;;;2.06;100.00
24031;BME280;12240;51.142;22.486;2023-02-13T06:13:49;101048.41;;;2.28;100.00
24031;BME280;12240;51.142;22.486;2023-02-13T06:16:17;101045.72;;;2.30;100.00
24031;BME280;12240;51.142;22.486;2023-02-13T06:18:45;100998.22;;;2.13;100.00
24031;BME280;12240;51.142;22.486;2023-02-13T06:21:14;101032.31;;;2.36;100.00
24031;BME280;12240;51.142;22.486;2023-02-13T06:23:42;101038.94;;;2.46;100.00
24031;BME280;12240;51.142;22.486;2023-02-13T06:26:10;101045.78;;;2.50;100.00
24031;BME280;12240;51.142;22.486;2023-02-13T06:28:39;101037.09;;;2.48;100.00
24031;BME280;12240;51.142;22.486;2023-02-13T06:31:08;101026.66;;;2.47;100.00
24031;BME280;12240;51.142;22.486;2023-02-13T06:33:38;101041.25;;;2.54;100.00
24031;BME280;12240;51.142;22.486;2023-02-13T06:36:06;101040.31;;;2.55;100.00
24031;BME280;12240;51.142;22.486;2023-02-13T06:38:34;101043.81;;;2.55;100.00
24031;BME280;12240;51.142;22.486;2023-02-13T06:41:04;101002.50;;;2.37;100.00
24031;BME280;12240;51.142;22.486;2023-02-13T06:43:32;101040.16;;;2.59;100.00
24031;BME280;12240;51.142;22.486;2023-02-13T06:46:05;101050.56;;;2.62;100.00
24031;BME280;12240;51.142;22.486;2023-02-13T06:48:34;100997.00;;;2.43;100.00
24031;BME280;12240;51.142;22.486;2023-02-13T06:51:02;101051.88;;;2.72;100.00
24031;BME280;12240;51.142;22.486;2023-02-13T06:53:31;100990.19;;;2.37;100.00
24031;BME280;12240;51.142;22.486;2023-02-13T06:56:03;101044.66;;;2.77;100.00
24031;BME280;12240;51.142;22.486;2023-02-13T06:58:34;101039.41;;;2.77;100.00
24031;BME280;12240;51.142;22.486;2023-02-13T07:01:02;101041.06;;;2.80;100.00
24031;BME280;12240;51.142;22.486;2023-02-13T07:03:31;101038.06;;;2.89;100.00
24031;BME280;12240;51.142;22.486;2023-02-13T07:06:00;100980.72;;;2.55;100.00
24031;BME280;12240;51.142;22.486;2023-02-13T07:08:29;101019.53;;;2.70;100.00
24031;BME280;12240;51.142;22.486;2023-02-13T07:10:57;101045.59;;;2.96;100.00
24031;BME280;12240;51.142;22.486;2023-02-13T07:13:26;101029.28;;;2.88;100.00
24031;BME280;12240;51.142;22.486;2023-02-13T07:15:54;101044.88;;;2.93;100.00
24031;BME280;12240;51.142;22.486;2023-02-13T07:18:28;101032.66;;;2.92;100.00
24031;BME280;12240;51.142;22.486;2023-02-13T07:20:57;101049.16;;;2.95;100.00
24031;BME280;12240;51.142;22.486;2023-02-13T07:23:26;101025.88;;;2.86;100.00
24031;BME280;12240;51.142;22.486;2023-02-13T07:25:58;101032.91;;;2.86;100.00
24031;BME280;12240;51.142;22.486;2023-02-13T07:28:28;101043.03;;;2.95;100.00
24031;BME280;12240;51.142;22.486;2023-02-13T07:30:58;101005.19;;;2.77;100.00
24031;BME280;12240;51.142;22.486;2023-02-13T07:33:31;101051.59;;;3.00;100.00
24031;BME280;12240;51.142;22.486;2023-02-13T07:36:00;101044.03;;;2.92;100.00
24031;BME280;12240;51.142;22.486;2023-02-13T07:38:31;101012.28;;;2.75;100.00
24031;BME280;12240;51.142;22.486;2023-02-13T07:41:03;101048.72;;;3.06;100.00
24031;BME280;12240;51.142;22.486;2023-02-13T07:43:31;101060.88;;;3.08;100.00
24031;BME280;12240;51.142;22.486;2023-02-13T07:46:02;101056.47;;;3.09;100.00
24031;BME280;12240;51.142;22.486;2023-02-13T07:48:31;101042.44;;;3.08;100.00
24031;BME280;12240;51.142;22.486;2023-02-13T07:51:04;101036.28;;;3.09;100.00
24031;BME280;12240;51.142;22.486;2023-02-13T07:53:32;101037.84;;;3.13;100.00
24031;BME280;12240;51.142;22.486;2023-02-13T07:56:09;101046.38;;;3.20;100.00
24031;BME280;12240;51.142;22.486;2023-02-13T07:58:38;101042.72;;;3.22;100.00
24031;BME280;12240;51.142;22.486;2023-02-13T08:01:10;101059.19;;;3.27;100.00
24031;BME280;12240;51.142;22.486;2023-02-13T08:03:39;101035.34;;;3.30;100.00
24031;BME280;12240;51.142;22.486;2023-02-13T08:06:09;101032.63;;;3.32;100.00
24031;BME280;12240;51.142;22.486;2023-02-13T08:08:39;101034.72;;;3.44;100.00
24031;BME280;12240;51.142;22.486;2023-02-13T08:11:27;101027.56;;;3.47;100.00
24031;BME280;12240;51.142;22.486;2023-02-13T08:14:27;101031.91;;;3.48;100.00
24031;BME280;12240;51.142;22.486;2023-02-13T08:16:58;101046.66;;;3.52;100.00
24031;BME280;12240;51.142;22.486;2023-02-13T08:19:28;100990.72;;;3.27;100.00
24031;BME280;12240;51.142;22.486;2023-02-13T08:21:57;101021.25;;;3.51;100.00
24031;BME280;12240;51.142;22.486;2023-02-13T08:24:26;100942.44;;;3.08;100.00
24031;BME280;12240;51.142;22.486;2023-02-13T08:26:55;100999.38;;;3.49;100.00
24031;BME280;12240;51.142;22.486;2023-02-13T08:29:24;101024.06;;;3.86;100.00
24031;BME280;12240;51.142;22.486;2023-02-13T08:31:53;101036.66;;;3.98;100.00
24031;BME280;12240;51.142;22.486;2023-02-13T08:34:21;100991.00;;;3.79;100.00
24031;BME280;12240;51.142;22.486;2023-02-13T08:36:50;101015.56;;;3.98;100.00
24031;BME280;12240;51.142;22.486;2023-02-13T08:39:18;101025.59;;;4.27;100.00
24031;BME280;12240;51.142;22.486;2023-02-13T08:41:46;101028.97;;;4.30;100.00
24031;BME280;12240;51.142;22.486;2023-02-13T08:44:15;101003.94;;;4.39;100.00
24031;BME280;12240;51.142;22.486;2023-02-13T08:46:43;101019.56;;;4.60;100.00
24031;BME280;12240;51.142;22.486;2023-02-13T08:49:12;101005.88;;;4.52;100.00
24031;BME280;12240;51.142;22.486;2023-02-13T08:51:40;101012.78;;;4.38;100.00
24031;BME280;12240;51.142;22.486;2023-02-13T08:54:09;100977.81;;;4.16;100.00
24031;BME280;12240;51.142;22.486;2023-02-13T08:56:37;100977.19;;;4.11;100.00
24031;BME280;12240;51.142;22.486;2023-02-13T08:59:06;101023.25;;;4.39;100.00
24031;BME280;12240;51.142;22.486;2023-02-13T09:01:35;101023.38;;;4.55;100.00
24031;BME280;12240;51.142;22.486;2023-02-13T09:04:04;101022.59;;;4.70;100.00
24031;BME280;12240;51.142;22.486;2023-02-13T09:06:32;101023.41;;;4.89;100.00
24031;BME280;12240;51.142;22.486;2023-02-13T09:09:03;101026.81;;;4.91;100.00
24031;BME280;12240;51.142;22.486;2023-02-13T09:11:31;100981.31;;;4.52;100.00
24031;BME280;12240;51.142;22.486;2023-02-13T09:14:01;101013.91;;;4.85;100.00
24031;BME280;12240;51.142;22.486;2023-02-13T09:16:29;101002.53;;;4.85;100.00
24031;BME280;12240;51.142;22.486;2023-02-13T09:18:58;101000.88;;;4.82;100.00
24031;BME280;12240;51.142;22.486;2023-02-13T09:21:35;101015.88;;;4.99;100.00
24031;BME280;12240;51.142;22.486;2023-02-13T09:24:10;101009.28;;;5.07;100.00
24031;BME280;12240;51.142;22.486;2023-02-13T09:26:39;101007.25;;;5.12;100.00
24031;BME280;12240;51.142;22.486;2023-02-13T09:29:08;101011.66;;;5.29;100.00
24031;BME280;12240;51.142;22.486;2023-02-13T09:31:36;100987.22;;;5.08;100.00
24031;BME280;12240;51.142;22.486;2023-02-13T09:34:05;101017.47;;;5.35;100.00
24031;BME280;12240;51.142;22.486;2023-02-13T09:36:33;101014.34;;;5.44;100.00
24031;BME280;12240;51.142;22.486;2023-02-13T09:39:03;100968.09;;;5.20;100.00
24031;BME280;12240;51.142;22.486;2023-02-13T09:41:39;101006.88;;;5.52;100.00
24031;BME280;12240;51.142;22.486;2023-02-13T09:44:19;101001.84;;;5.48;100.00
24031;BME280;12240;51.142;22.486;2023-02-13T09:50:16;100957.50;;;5.37;100.00
24031;BME280;12240;51.142;22.486;2023-02-13T09:52:47;100991.56;;;5.59;100.00
24031;BME280;12240;51.142;22.486;2023-02-13T09:55:25;100992.75;;;5.53;100.00
24031;BME280;12240;51.142;22.486;2023-02-13T09:58:26;100999.72;;;5.54;100.00
24031;BME280;12240;51.142;22.486;2023-02-13T10:01:04;100994.59;;;5.51;100.00
24031;BME280;12240;51.142;22.486;2023-02-13T10:06:40;101008.72;;;5.50;100.00
24031;BME280;12240;51.142;22.486;2023-02-13T10:12:33;101005.91;;;5.70;100.00
24031;BME280;12240;51.142;22.486;2023-02-13T10:15:36;101010.81;;;5.93;100.00
24031;BME280;12240;51.142;22.486;2023-02-13T10:18:56;100994.84;;;5.79;100.00
24031;BME280;12240;51.142;22.486;2023-02-13T10:21:34;100981.41;;;5.84;100.00
24031;BME280;12240;51.142;22.486;2023-02-13T10:24:17;100937.59;;;5.63;100.00
24031;BME280;12240;51.142;22.486;2023-02-13T10:26:48;100975.94;;;6.03;100.00
24031;BME280;12240;51.142;22.486;2023-02-13T10:32:18;100927.41;;;5.72;100.00
24031;BME280;12240;51.142;22.486;2023-02-13T10:34:52;100980.91;;;6.24;100.00
24031;BME280;12240;51.142;22.486;2023-02-13T10:37:22;100964.19;;;6.24;100.00
24031;BME280;12240;51.142;22.486;2023-02-13T10:39:52;100947.13;;;6.14;100.00
24031;BME280;12240;51.142;22.486;2023-02-13T10:46:05;100958.44;;;6.31;100.00
24031;BME280;12240;51.142;22.486;2023-02-13T10:58:18;100950.69;;;5.97;100.00
24031;BME280;12240;51.142;22.486;2023-02-13T11:00:59;100940.97;;;5.98;100.00
24031;BME280;12240;51.142;22.486;2023-02-13T11:03:30;100941.66;;;5.85;100.00
24031;BME280;12240;51.142;22.486;2023-02-13T11:05:59;100923.53;;;5.62;100.00
24031;BME280;12240;51.142;22.486;2023-02-13T11:08:39;100931.19;;;5.84;100.00
24031;BME280;12240;51.142;22.486;2023-02-13T11:11:37;100924.63;;;5.91;100.00
24031;BME280;12240;51.142;22.486;2023-02-13T11:14:08;100929.72;;;6.10;100.00
24031;BME280;12240;51.142;22.486;2023-02-13T11:17:00;100896.44;;;6.06;100.00
24031;BME280;12240;51.142;22.486;2023-02-13T11:19:38;100931.34;;;6.28;100.00
24031;BME280;12240;51.142;22.486;2023-02-13T11:22:12;100919.88;;;6.27;100.00
24031;BME280;12240;51.142;22.486;2023-02-13T11:24:52;100914.59;;;6.27;100.00
24031;BME280;12240;51.142;22.486;2023-02-13T11:27:29;100906.69;;;6.12;100.00
24031;BME280;12240;51.142;22.486;2023-02-13T11:33:02;100916.59;;;5.93;100.00
24031;BME280;12240;51.142;22.486;2023-02-13T11:35:38;100917.25;;;5.80;100.00
24031;BME280;12240;51.142;22.486;2023-02-13T11:41:09;100912.59;;;5.85;100.00
24031;BME280;12240;51.142;22.486;2023-02-13T11:43:57;100910.19;;;6.12;100.00
24031;BME280;12240;51.142;22.486;2023-02-13T11:46:41;100906.19;;;6.35;100.00
24031;BME280;12240;51.142;22.486;2023-02-13T11:49:27;100902.63;;;6.36;100.00
24031;BME280;12240;51.142;22.486;2023-02-13T11:52:02;100900.22;;;6.31;100.00
24031;BME280;12240;51.142;22.486;2023-02-13T11:54:36;100900.50;;;6.27;100.00
24031;BME280;12240;51.142;22.486;2023-02-13T11:57:41;100902.94;;;6.16;100.00
24031;BME280;12240;51.142;22.486;2023-02-13T12:00:28;100896.53;;;6.04;100.00
24031;BME280;12240;51.142;22.486;2023-02-13T12:03:29;100877.34;;;5.85;100.00
24031;BME280;12240;51.142;22.486;2023-02-13T12:06:14;100832.94;;;5.60;100.00
24031;BME280;12240;51.142;22.486;2023-02-13T12:08:48;100885.28;;;5.85;100.00
24031;BME280;12240;51.142;22.486;2023-02-13T12:11:56;100869.19;;;5.89;100.00
24031;BME280;12240;51.142;22.486;2023-02-13T12:14:32;100874.94;;;5.80;100.00
24031;BME280;12240;51.142;22.486;2023-02-13T12:17:25;100867.88;;;5.81;100.00
24031;BME280;12240;51.142;22.486;2023-02-13T12:20:00;100866.16;;;5.80;100.00
24031;BME280;12240;51.142;22.486;2023-02-13T12:22:47;100869.53;;;5.83;100.00
24031;BME280;12240;51.142;22.486;2023-02-13T12:26:13;100856.97;;;5.87;100.00
24031;BME280;12240;51.142;22.486;2023-02-13T12:32:18;100840.50;;;5.82;100.00
24031;BME280;12240;51.142;22.486;2023-02-13T12:35:20;100859.97;;;5.97;100.00
24031;BME280;12240;51.142;22.486;2023-02-13T12:47:18;100867.44;;;5.42;100.00
24031;BME280;12240;51.142;22.486;2023-02-13T12:56:12;100844.88;;;4.88;100.00
24031;BME280;12240;51.142;22.486;2023-02-13T13:08:16;100832.75;;;4.84;100.00
24031;BME280;12240;51.142;22.486;2023-02-13T13:22:48;100855.34;;;5.38;100.00
24031;BME280;12240;51.142;22.486;2023-02-13T13:25:30;100838.38;;;5.26;100.00
24031;BME280;12240;51.142;22.486;2023-02-13T13:28:10;100842.91;;;5.24;100.00
24031;BME280;12240;51.142;22.486;2023-02-13T13:30:42;100839.81;;;5.16;100.00
24031;BME280;12240;51.142;22.486;2023-02-13T13:33:21;100826.94;;;5.10;100.00
24031;BME280;12240;51.142;22.486;2023-02-13T13:36:25;100839.88;;;5.15;100.00
24031;BME280;12240;51.142;22.486;2023-02-13T13:42:19;100826.78;;;5.13;100.00
24031;BME280;12240;51.142;22.486;2023-02-13T13:50:39;100838.44;;;5.09;100.00
24031;BME280;12240;51.142;22.486;2023-02-13T13:53:20;100831.28;;;5.11;100.00
24031;BME280;12240;51.142;22.486;2023-02-13T13:55:58;100835.28;;;5.18;100.00
24031;BME280;12240;51.142;22.486;2023-02-13T13:58:45;100833.69;;;5.16;100.00
24031;BME280;12240;51.142;22.486;2023-02-13T14:01:22;100840.16;;;5.10;100.00
24031;BME280;12240;51.142;22.486;2023-02-13T14:09:41;100771.63;;;4.76;100.00
24031;BME280;12240;51.142;22.486;2023-02-13T14:14:59;100754.97;;;4.91;100.00
24031;BME280;12240;51.142;22.486;2023-02-13T14:23:46;100798.69;;;5.12;100.00
24031;BME280;12240;51.142;22.486;2023-02-13T14:26:34;100779.00;;;5.02;100.00
24031;BME280;12240;51.142;22.486;2023-02-13T14:29:29;100782.72;;;4.98;100.00
24031;BME280;12240;51.142;22.486;2023-02-13T14:32:18;100789.00;;;4.96;100.00
24031;BME280;12240;51.142;22.486;2023-02-13T14:35:34;100771.13;;;4.85;100.00
24031;BME280;12240;51.142;22.486;2023-02-13T14:37:58;100742.06;;;4.69;100.00
24031;BME280;12240;51.142;22.486;2023-02-13T14:40:51;100786.47;;;4.94;100.00
24031;BME280;12240;51.142;22.486;2023-02-13T14:43:50;100785.78;;;4.91;100.00
24031;BME280;12240;51.142;22.486;2023-02-13T14:46:38;100796.16;;;4.94;100.00
24031;BME280;12240;51.142;22.486;2023-02-13T14:49:18;100792.22;;;4.85;100.00
24031;BME280;12240;51.142;22.486;2023-02-13T14:51:58;100781.94;;;4.81;100.00
24031;BME280;12240;51.142;22.486;2023-02-13T14:54:48;100788.84;;;4.83;100.00
24031;BME280;12240;51.142;22.486;2023-02-13T14:57:32;100787.91;;;4.84;100.00
24031;BME280;12240;51.142;22.486;2023-02-13T15:00:54;100790.88;;;4.78;100.00
24031;BME280;12240;51.142;22.486;2023-02-13T15:03:46;100756.16;;;4.53;100.00
24031;BME280;12240;51.142;22.486;2023-02-13T15:06:28;100778.34;;;4.66;100.00
24031;BME280;12240;51.142;22.486;2023-02-13T15:09:05;100772.91;;;4.69;100.00
24031;BME280;12240;51.142;22.486;2023-02-13T15:11:43;100720.19;;;4.52;100.00
24031;BME280;12240;51.142;22.486;2023-02-13T15:14:33;100679.03;;;4.32;100.00
24031;BME280;12240;51.142;22.486;2023-02-13T15:17:21;100751.88;;;4.67;100.00
24031;BME280;12240;51.142;22.486;2023-02-13T15:19:54;100746.81;;;4.63;100.00
24031;BME280;12240;51.142;22.486;2023-02-13T15:22:34;100723.66;;;4.52;100.00
24031;BME280;12240;51.142;22.486;2023-02-13T15:25:07;100737.88;;;4.50;100.00
24031;BME280;12240;51.142;22.486;2023-02-13T15:27:41;100696.19;;;4.24;100.00
24031;BME280;12240;51.142;22.486;2023-02-13T15:30:24;100729.53;;;4.42;100.00
24031;BME280;12240;51.142;22.486;2023-02-13T15:33:03;100692.09;;;4.18;100.00
24031;BME280;12240;51.142;22.486;2023-02-13T15:35:34;100731.53;;;4.37;100.00
24031;BME280;12240;51.142;22.486;2023-02-13T15:38:37;100721.88;;;4.20;100.00
24031;BME280;12240;51.142;22.486;2023-02-13T15:43:49;100743.78;;;4.38;100.00
24031;BME280;12240;51.142;22.486;2023-02-13T15:46:34;100749.84;;;4.40;100.00